createdAt,value
2022-08-27T00:02:18.107Z,99549.84
2022-08-27T00:05:06.351Z,99556.94
2022-08-27T00:07:54.186Z,99561.66
2022-08-27T00:10:42.486Z,99545.34
2022-08-27T00:13:30.137Z,99559.75
2022-08-27T00:16:18.981Z,99521.63
2022-08-27T00:19:07.007Z,99534.94
2022-08-27T00:21:55.965Z,99467.50
2022-08-27T00:24:48.539Z,99544.34
2022-08-27T00:27:37.668Z,99535.28
2022-08-27T00:30:25.335Z,99551.13
2022-08-27T00:33:13.617Z,99544.16
2022-08-27T00:36:01.758Z,99524.78
2022-08-27T00:38:49.787Z,99553.78
2022-08-27T00:41:43.650Z,99540.28
2022-08-27T00:44:32.260Z,99558.09
2022-08-27T00:47:27.034Z,99535.72
2022-08-27T00:50:19.851Z,99558.59
2022-08-27T00:53:20.111Z,99576.97
2022-08-27T00:56:17.251Z,99566.34
2022-08-27T00:59:05.124Z,99544.50
2022-08-27T01:02:11.461Z,99574.41
2022-08-27T01:05:05.743Z,99572.97
2022-08-27T01:07:58.320Z,99529.63
2022-08-27T01:10:46.912Z,99573.13
2022-08-27T01:13:58.853Z,99539.25
2022-08-27T01:16:49.721Z,99564.72
2022-08-27T01:20:08.489Z,99555.69
2022-08-27T01:23:10.594Z,99534.81
2022-08-27T01:25:59.867Z,99559.41
2022-08-27T01:28:49.381Z,99554.25
2022-08-27T01:31:37.481Z,99560.56
2022-08-27T01:34:25.847Z,99563.28
2022-08-27T01:37:15.319Z,99562.47
2022-08-27T01:43:09.949Z,99553.72
2022-08-27T01:45:57.607Z,99552.66
2022-08-27T01:48:48.261Z,99550.00
2022-08-27T01:51:36.142Z,99559.19
2022-08-27T01:54:23.950Z,99560.44
2022-08-27T01:57:12.404Z,99530.03
2022-08-27T02:00:00.345Z,99561.06
2022-08-27T02:02:49.017Z,99558.97
2022-08-27T02:05:44.922Z,99567.56
2022-08-27T02:08:33.541Z,99566.78
2022-08-27T02:11:21.259Z,99558.13
2022-08-27T02:14:12.918Z,99572.47
2022-08-27T02:17:01.535Z,99562.94
2022-08-27T02:19:49.606Z,99565.38
2022-08-27T02:22:38.863Z,99565.38
2022-08-27T02:25:27.980Z,99572.56
2022-08-27T02:28:18.261Z,99543.75
2022-08-27T02:31:06.365Z,99564.78
2022-08-27T02:33:54.253Z,99574.38
2022-08-27T02:36:41.994Z,99577.22
2022-08-27T02:39:29.683Z,99572.03
2022-08-27T02:42:17.409Z,99569.63
2022-08-27T02:45:08.233Z,99582.91
2022-08-27T02:47:56.030Z,99567.88
2022-08-27T02:50:47.005Z,99561.97
2022-08-27T02:53:38.246Z,99578.19
2022-08-27T02:56:28.175Z,99570.66
2022-08-27T02:59:15.943Z,99547.00
2022-08-27T03:02:03.899Z,99578.25
2022-08-27T03:04:51.683Z,99571.72
2022-08-27T03:07:40.484Z,99573.94
2022-08-27T03:10:28.209Z,99579.94
2022-08-27T03:13:15.915Z,99581.94
2022-08-27T03:16:04.122Z,99587.09
2022-08-27T03:18:52.466Z,99588.34
2022-08-27T03:21:40.164Z,99598.91
2022-08-27T03:24:27.968Z,99565.75
2022-08-27T03:27:17.331Z,99602.56
2022-08-27T03:30:12.229Z,99602.16
2022-08-27T03:32:59.844Z,99568.59
2022-08-27T03:35:51.722Z,99601.09
2022-08-27T03:38:50.301Z,99600.00
2022-08-27T03:41:54.819Z,99607.16
2022-08-27T03:44:43.067Z,99615.19
2022-08-27T03:47:30.854Z,99622.00
2022-08-27T03:50:18.492Z,99609.28
2022-08-27T03:53:06.255Z,99624.34
2022-08-27T03:55:53.970Z,99634.31
2022-08-27T03:58:42.433Z,99631.00
2022-08-27T04:01:30.166Z,99621.84
2022-08-27T04:04:17.860Z,99614.34
2022-08-27T04:07:05.974Z,99623.44
2022-08-27T04:09:54.172Z,99624.16
2022-08-27T04:12:42.686Z,99630.44
2022-08-27T04:15:30.425Z,99595.09
2022-08-27T04:18:19.173Z,99621.25
2022-08-27T04:21:09.415Z,99600.16
2022-08-27T04:23:57.171Z,99637.97
2022-08-27T04:26:48.773Z,99604.28
2022-08-27T04:29:43.626Z,99635.16
2022-08-27T04:32:32.325Z,99635.44
2022-08-27T04:35:22.247Z,99642.56
2022-08-27T04:38:10.340Z,99642.88
2022-08-27T04:41:23.450Z,99624.16
2022-08-27T04:44:11.671Z,99651.06
2022-08-27T04:47:03.090Z,99642.91
2022-08-27T04:49:56.628Z,99644.69
2022-08-27T04:52:45.070Z,99626.63
2022-08-27T04:55:32.971Z,99657.63
2022-08-27T04:58:22.112Z,99652.81
2022-08-27T05:05:19.357Z,99644.31
2022-08-27T05:08:08.275Z,99629.09
2022-08-27T05:10:57.172Z,99627.56
2022-08-27T05:13:46.300Z,99636.47
2022-08-27T05:16:36.653Z,99647.44
2022-08-27T05:19:24.479Z,99654.75
2022-08-27T05:22:15.178Z,99632.63
2022-08-27T05:25:13.281Z,99621.31
2022-08-27T05:28:01.213Z,99657.91
2022-08-27T05:30:55.589Z,99663.78
2022-08-27T05:33:44.898Z,99664.75
2022-08-27T05:36:35.416Z,99660.56
2022-08-27T05:39:25.093Z,99672.56
2022-08-27T05:42:13.005Z,99671.19
2022-08-27T05:45:00.935Z,99655.16
2022-08-27T05:47:54.901Z,99658.44
2022-08-27T05:50:44.654Z,99662.06
2022-08-27T05:53:32.503Z,99668.63
2022-08-27T05:56:22.939Z,99659.94
2022-08-27T05:59:29.405Z,99674.03
2022-08-27T06:02:17.396Z,99660.06
2022-08-27T06:05:05.590Z,99670.63
2022-08-27T06:07:53.417Z,99642.34
2022-08-27T06:10:43.031Z,99669.44
2022-08-27T06:13:31.856Z,99665.31
2022-08-27T06:16:21.685Z,99663.84
2022-08-27T06:19:12.399Z,99685.31
2022-08-27T06:22:09.834Z,99680.69
2022-08-27T06:24:59.968Z,99668.50
2022-08-27T06:27:50.682Z,99683.69
2022-08-27T06:30:38.534Z,99638.78
2022-08-27T06:33:26.165Z,99659.22
2022-08-27T06:36:17.007Z,99690.16
2022-08-27T06:39:07.747Z,99651.13
2022-08-27T06:41:55.590Z,99657.78
2022-08-27T06:44:43.297Z,99684.84
2022-08-27T06:47:34.255Z,99683.75
2022-08-27T06:50:26.706Z,99689.88
2022-08-27T06:53:15.026Z,99688.59
2022-08-27T06:56:11.551Z,99700.72
2022-08-27T06:59:11.490Z,99704.44
2022-08-27T07:01:59.872Z,99647.06
2022-08-27T07:04:53.487Z,99610.94
2022-08-27T07:07:48.674Z,99673.00
2022-08-27T07:10:37.042Z,99696.59
2022-08-27T07:13:25.464Z,99690.81
2022-08-27T07:16:23.903Z,99689.59
2022-08-27T07:19:11.833Z,99701.44
2022-08-27T07:22:06.213Z,99698.34
2022-08-27T07:24:54.003Z,99692.59
2022-08-27T07:27:49.340Z,99696.81
2022-08-27T07:30:43.029Z,99710.28
2022-08-27T07:33:30.561Z,99702.25
2022-08-27T07:36:18.705Z,99704.69
2022-08-27T07:39:07.564Z,99704.47
2022-08-27T07:42:23.259Z,99701.94
2022-08-27T07:45:11.219Z,99698.63
2022-08-27T07:47:58.997Z,99704.56
2022-08-27T07:50:48.935Z,99690.00
2022-08-27T07:53:36.565Z,99711.16
2022-08-27T07:56:24.245Z,99711.75
2022-08-27T07:59:14.779Z,99699.50
2022-08-27T08:02:03.705Z,99710.84
2022-08-27T08:04:51.831Z,99707.31
2022-08-27T08:07:40.103Z,99697.28
2022-08-27T08:10:35.642Z,99677.38
2022-08-27T08:13:46.584Z,99681.09
2022-08-27T08:16:39.265Z,99702.84
2022-08-27T08:19:29.813Z,99725.06
2022-08-27T08:22:21.053Z,99712.13
2022-08-27T08:25:12.957Z,99705.19
2022-08-27T08:28:03.317Z,99676.16
2022-08-27T08:30:55.606Z,99696.81
2022-08-27T08:33:48.246Z,99693.13
2022-08-27T08:36:36.532Z,99693.00
2022-08-27T08:39:29.504Z,99705.97
2022-08-27T08:42:50.596Z,99699.94
2022-08-27T08:45:48.064Z,99701.59
2022-08-27T08:48:43.808Z,99698.16
2022-08-27T08:51:41.431Z,99701.81
2022-08-27T08:54:33.842Z,99691.88
2022-08-27T08:57:29.768Z,99697.44
2022-08-27T09:00:24.570Z,99697.19
2022-08-27T09:03:15.923Z,99684.72
2022-08-27T09:06:05.709Z,99692.84
2022-08-27T09:08:53.465Z,99694.69
2022-08-27T09:11:52.621Z,99677.81
2022-08-27T09:14:55.181Z,99693.91
2022-08-27T09:17:49.991Z,99698.31
2022-08-27T09:20:39.030Z,99687.69
2022-08-27T09:23:38.767Z,99703.00
2022-08-27T09:26:28.864Z,99690.56
2022-08-27T09:29:21.268Z,99689.22
2022-08-27T09:32:10.161Z,99639.38
2022-08-27T09:35:00.101Z,99696.53
2022-08-27T09:37:53.030Z,99676.97
2022-08-27T09:40:50.514Z,99662.47
2022-08-27T09:43:41.557Z,99681.88
2022-08-27T09:46:32.354Z,99681.09
2022-08-27T09:49:22.631Z,99660.31
2022-08-27T09:52:19.621Z,99682.13
2022-08-27T09:55:07.709Z,99661.91
2022-08-27T09:58:08.370Z,99669.16
2022-08-27T10:01:03.002Z,99655.66
2022-08-27T10:03:50.922Z,99680.91
2022-08-27T10:06:45.785Z,99681.59
2022-08-27T10:09:45.147Z,99680.31
2022-08-27T10:13:25.234Z,99673.06
2022-08-27T10:16:34.785Z,99673.22
2022-08-27T10:19:46.498Z,99677.19
2022-08-27T10:22:44.890Z,99628.50
2022-08-27T10:26:03.541Z,99669.97
2022-08-27T10:29:22.875Z,99669.19
2022-08-27T10:32:40.781Z,99668.00
2022-08-27T10:35:48.181Z,99662.22
2022-08-27T10:39:04.472Z,99664.06
2022-08-27T10:42:06.743Z,99657.28
2022-08-27T10:45:30.682Z,99633.53
2022-08-27T10:48:39.883Z,99675.00
2022-08-27T10:51:47.223Z,99678.19
2022-08-27T10:55:10.615Z,99665.13
2022-08-27T10:58:29.982Z,99663.28
2022-08-27T11:01:31.435Z,99651.97
2022-08-27T11:04:38.250Z,99658.94
2022-08-27T11:07:40.631Z,99664.25
2022-08-27T11:10:39.323Z,99664.34
2022-08-27T11:13:33.647Z,99662.72
2022-08-27T11:16:28.966Z,99664.22
2022-08-27T11:19:31.985Z,99653.00
2022-08-27T11:22:26.868Z,99651.19
2022-08-27T11:25:21.485Z,99660.97
2022-08-27T11:28:11.731Z,99571.00
2022-08-27T11:31:06.458Z,99658.09
2022-08-27T11:34:10.572Z,99626.56
2022-08-27T11:37:29.381Z,99651.59
2022-08-27T11:40:37.491Z,99643.47
2022-08-27T11:43:30.012Z,99616.53
2022-08-27T11:46:31.687Z,99643.41
2022-08-27T11:49:41.459Z,99639.28
2022-08-27T11:52:58.506Z,99631.88
2022-08-27T11:55:46.200Z,99641.41
2022-08-27T11:58:53.457Z,99615.25
2022-08-27T12:01:41.346Z,99615.84
2022-08-27T12:04:41.269Z,99608.41
2022-08-27T12:07:36.459Z,99619.28
2022-08-27T12:10:44.121Z,99596.81
2022-08-27T12:13:46.093Z,99610.75
2022-08-27T12:17:24.455Z,99602.44
2022-08-27T12:20:23.812Z,99602.53
2022-08-27T12:23:48.091Z,99606.41
2022-08-27T12:26:43.003Z,99603.59
2022-08-27T12:29:58.287Z,99596.63
